sensor_id;sensor_type;location;lat;lon;timestamp;temperature;humidity
12726;DHT22;6427;49.754;6.106;2022-12-18T00:02:12;-7.80;99.90
12726;DHT22;6427;49.754;6.106;2022-12-18T00:04:40;-7.80;99.90
12726;DHT22;6427;49.754;6.106;2022-12-18T00:07:08;-7.80;99.90
12726;DHT22;6427;49.754;6.106;2022-12-18T00:09:36;-7.80;99.90
12726;DHT22;6427;49.754;6.106;2022-12-18T00:12:05;-7.80;99.90
12726;DHT22;6427;49.754;6.106;2022-12-18T00:14:32;-7.80;99.90
12726;DHT22;6427;49.754;6.106;2022-12-18T00:17:00;-7.80;99.90
12726;DHT22;6427;49.754;6.106;2022-12-18T00:19:27;-7.80;99.90
12726;DHT22;6427;49.754;6.106;2022-12-18T00:21:56;-7.80;99.90
12726;DHT22;6427;49.754;6.106;2022-12-18T00:24:23;-7.80;99.90
12726;DHT22;6427;49.754;6.106;2022-12-18T00:26:51;-7.80;99.90
12726;DHT22;6427;49.754;6.106;2022-12-18T00:29:18;-7.80;99.90
12726;DHT22;6427;49.754;6.106;2022-12-18T00:31:46;-7.80;99.90
12726;DHT22;6427;49.754;6.106;2022-12-18T00:34:13;-7.80;99.90
12726;DHT22;6427;49.754;6.106;2022-12-18T00:36:41;-7.80;99.90
12726;DHT22;6427;49.754;6.106;2022-12-18T00:39:10;-7.80;99.90
12726;DHT22;6427;49.754;6.106;2022-12-18T00:41:38;-7.80;99.90
12726;DHT22;6427;49.754;6.106;2022-12-18T00:44:24;-7.80;99.90
12726;DHT22;6427;49.754;6.106;2022-12-18T00:46:51;-7.80;99.90
12726;DHT22;6427;49.754;6.106;2022-12-18T00:49:19;-7.80;99.90
12726;DHT22;6427;49.754;6.106;2022-12-18T00:51:47;-7.80;99.90
12726;DHT22;6427;49.754;6.106;2022-12-18T00:54:14;-7.90;99.90
12726;DHT22;6427;49.754;6.106;2022-12-18T00:56:42;-7.90;99.90
12726;DHT22;6427;49.754;6.106;2022-12-18T00:59:09;-8.00;99.90
12726;DHT22;6427;49.754;6.106;2022-12-18T01:01:37;-8.00;99.90
12726;DHT22;6427;49.754;6.106;2022-12-18T01:04:05;-8.00;99.90
12726;DHT22;6427;49.754;6.106;2022-12-18T01:06:33;-8.00;99.90
12726;DHT22;6427;49.754;6.106;2022-12-18T01:09:01;-8.00;99.90
12726;DHT22;6427;49.754;6.106;2022-12-18T01:11:28;-8.00;99.90
12726;DHT22;6427;49.754;6.106;2022-12-18T01:13:56;-7.90;99.90
12726;DHT22;6427;49.754;6.106;2022-12-18T01:16:26;-7.90;99.90
12726;DHT22;6427;49.754;6.106;2022-12-18T01:18:54;-7.90;99.90
12726;DHT22;6427;49.754;6.106;2022-12-18T01:21:22;-7.80;99.90
12726;DHT22;6427;49.754;6.106;2022-12-18T01:23:55;-7.80;99.90
12726;DHT22;6427;49.754;6.106;2022-12-18T01:26:19;-7.80;99.90
12726;DHT22;6427;49.754;6.106;2022-12-18T01:28:47;-7.80;99.90
12726;DHT22;6427;49.754;6.106;2022-12-18T01:31:16;-7.80;99.90
12726;DHT22;6427;49.754;6.106;2022-12-18T01:33:42;-7.90;99.90
12726;DHT22;6427;49.754;6.106;2022-12-18T01:36:21;-7.70;99.90
12726;DHT22;6427;49.754;6.106;2022-12-18T01:38:47;-7.70;99.90
12726;DHT22;6427;49.754;6.106;2022-12-18T01:41:15;-7.80;99.90
12726;DHT22;6427;49.754;6.106;2022-12-18T01:43:46;-7.90;99.90
12726;DHT22;6427;49.754;6.106;2022-12-18T01:46:12;-8.00;99.90
12726;DHT22;6427;49.754;6.106;2022-12-18T01:48:40;-8.00;99.90
12726;DHT22;6427;49.754;6.106;2022-12-18T01:51:08;-8.10;99.90
12726;DHT22;6427;49.754;6.106;2022-12-18T01:53:35;-8.10;99.90
12726;DHT22;6427;49.754;6.106;2022-12-18T01:56:02;-8.20;99.90
12726;DHT22;6427;49.754;6.106;2022-12-18T01:58:50;-8.20;99.90
12726;DHT22;6427;49.754;6.106;2022-12-18T02:01:15;-8.20;99.90
12726;DHT22;6427;49.754;6.106;2022-12-18T02:03:43;-8.20;99.90
12726;DHT22;6427;49.754;6.106;2022-12-18T02:09:10;-8.20;99.90
12726;DHT22;6427;49.754;6.106;2022-12-18T02:14:44;-8.10;99.90
12726;DHT22;6427;49.754;6.106;2022-12-18T02:17:18;-8.20;99.90
12726;DHT22;6427;49.754;6.106;2022-12-18T02:22:36;-8.20;99.90
12726;DHT22;6427;49.754;6.106;2022-12-18T02:27:49;-8.20;99.90
12726;DHT22;6427;49.754;6.106;2022-12-18T02:30:17;-8.20;99.90
12726;DHT22;6427;49.754;6.106;2022-12-18T02:32:46;-8.30;99.90
12726;DHT22;6427;49.754;6.106;2022-12-18T02:35:20;-8.30;99.90
12726;DHT22;6427;49.754;6.106;2022-12-18T02:37:43;-8.30;99.90
12726;DHT22;6427;49.754;6.106;2022-12-18T02:40:11;-8.10;99.90
12726;DHT22;6427;49.754;6.106;2022-12-18T02:42:39;-8.10;99.90
12726;DHT22;6427;49.754;6.106;2022-12-18T02:45:07;-8.10;99.90
12726;DHT22;6427;49.754;6.106;2022-12-18T02:47:36;-8.10;99.90
12726;DHT22;6427;49.754;6.106;2022-12-18T02:50:28;-8.10;99.90
12726;DHT22;6427;49.754;6.106;2022-12-18T02:53:16;-8.10;99.90
12726;DHT22;6427;49.754;6.106;2022-12-18T02:58:52;-8.20;99.90
12726;DHT22;6427;49.754;6.106;2022-12-18T03:01:29;-8.20;99.90
12726;DHT22;6427;49.754;6.106;2022-12-18T03:04:12;-8.00;99.90
12726;DHT22;6427;49.754;6.106;2022-12-18T03:06:35;-8.10;99.90
12726;DHT22;6427;49.754;6.106;2022-12-18T03:09:06;-8.20;99.90
12726;DHT22;6427;49.754;6.106;2022-12-18T03:11:30;-8.20;99.90
12726;DHT22;6427;49.754;6.106;2022-12-18T03:14:15;-8.30;99.90
12726;DHT22;6427;49.754;6.106;2022-12-18T03:16:43;-8.40;99.90
12726;DHT22;6427;49.754;6.106;2022-12-18T03:19:15;-8.40;99.90
12726;DHT22;6427;49.754;6.106;2022-12-18T03:21:51;-8.40;99.90
12726;DHT22;6427;49.754;6.106;2022-12-18T03:24:15;-8.40;99.90
12726;DHT22;6427;49.754;6.106;2022-12-18T03:26:46;-8.50;99.90
12726;DHT22;6427;49.754;6.106;2022-12-18T03:29:15;-8.40;99.90
12726;DHT22;6427;49.754;6.106;2022-12-18T03:31:42;-8.50;99.90
12726;DHT22;6427;49.754;6.106;2022-12-18T03:34:12;-8.50;99.90
12726;DHT22;6427;49.754;6.106;2022-12-18T03:36:37;-8.50;99.90
12726;DHT22;6427;49.754;6.106;2022-12-18T03:39:05;-8.50;99.90
12726;DHT22;6427;49.754;6.106;2022-12-18T03:41:48;-8.60;99.90
12726;DHT22;6427;49.754;6.106;2022-12-18T03:44:29;-8.60;99.90
12726;DHT22;6427;49.754;6.106;2022-12-18T03:50:11;-8.40;99.90
12726;DHT22;6427;49.754;6.106;2022-12-18T03:52:50;-8.40;99.90
12726;DHT22;6427;49.754;6.106;2022-12-18T03:55:17;-8.40;99.90
12726;DHT22;6427;49.754;6.106;2022-12-18T03:57:45;-8.40;99.90
12726;DHT22;6427;49.754;6.106;2022-12-18T04:00:13;-8.40;99.90
12726;DHT22;6427;49.754;6.106;2022-12-18T04:02:46;-8.50;99.90
12726;DHT22;6427;49.754;6.106;2022-12-18T04:05:09;-8.60;99.90
12726;DHT22;6427;49.754;6.106;2022-12-18T04:07:36;-8.60;99.90
12726;DHT22;6427;49.754;6.106;2022-12-18T04:10:04;-8.60;99.90
12726;DHT22;6427;49.754;6.106;2022-12-18T04:12:31;-8.60;99.90
12726;DHT22;6427;49.754;6.106;2022-12-18T04:14:59;-8.60;99.90
12726;DHT22;6427;49.754;6.106;2022-12-18T04:17:26;-8.70;99.90
12726;DHT22;6427;49.754;6.106;2022-12-18T04:19:54;-8.60;99.90
12726;DHT22;6427;49.754;6.106;2022-12-18T04:22:21;-8.60;99.90
12726;DHT22;6427;49.754;6.106;2022-12-18T04:24:50;-8.60;99.90
12726;DHT22;6427;49.754;6.106;2022-12-18T04:27:18;-8.60;99.90
12726;DHT22;6427;49.754;6.106;2022-12-18T04:29:45;-8.60;99.90
12726;DHT22;6427;49.754;6.106;2022-12-18T04:32:13;-8.60;99.90
12726;DHT22;6427;49.754;6.106;2022-12-18T04:34:41;-8.70;99.90
12726;DHT22;6427;49.754;6.106;2022-12-18T04:37:09;-8.70;99.90
12726;DHT22;6427;49.754;6.106;2022-12-18T04:39:37;-8.80;99.90
12726;DHT22;6427;49.754;6.106;2022-12-18T04:42:05;-8.70;99.90
12726;DHT22;6427;49.754;6.106;2022-12-18T04:44:33;-8.80;99.90
12726;DHT22;6427;49.754;6.106;2022-12-18T04:47:01;-8.80;99.90
12726;DHT22;6427;49.754;6.106;2022-12-18T04:49:29;-8.80;99.90
12726;DHT22;6427;49.754;6.106;2022-12-18T04:51:56;-8.80;99.90
12726;DHT22;6427;49.754;6.106;2022-12-18T04:54:24;-8.80;99.90
12726;DHT22;6427;49.754;6.106;2022-12-18T04:56:51;-8.80;99.90
12726;DHT22;6427;49.754;6.106;2022-12-18T04:59:19;-8.80;99.90
12726;DHT22;6427;49.754;6.106;2022-12-18T05:01:47;-8.70;99.90
12726;DHT22;6427;49.754;6.106;2022-12-18T05:04:14;-8.40;99.90
12726;DHT22;6427;49.754;6.106;2022-12-18T05:06:42;-8.10;99.90
12726;DHT22;6427;49.754;6.106;2022-12-18T05:09:09;-8.20;99.90
12726;DHT22;6427;49.754;6.106;2022-12-18T05:11:38;-8.30;99.90
12726;DHT22;6427;49.754;6.106;2022-12-18T05:14:05;-8.30;99.90
12726;DHT22;6427;49.754;6.106;2022-12-18T05:16:33;-8.10;99.90
12726;DHT22;6427;49.754;6.106;2022-12-18T05:19:01;-7.90;99.90
12726;DHT22;6427;49.754;6.106;2022-12-18T05:21:29;-8.30;99.90
12726;DHT22;6427;49.754;6.106;2022-12-18T05:23:56;-8.30;99.90
12726;DHT22;6427;49.754;6.106;2022-12-18T05:26:25;-8.40;99.90
12726;DHT22;6427;49.754;6.106;2022-12-18T05:28:53;-8.50;99.90
12726;DHT22;6427;49.754;6.106;2022-12-18T05:31:23;-8.60;99.90
12726;DHT22;6427;49.754;6.106;2022-12-18T05:33:51;-8.60;99.90
12726;DHT22;6427;49.754;6.106;2022-12-18T05:36:19;-8.70;99.90
12726;DHT22;6427;49.754;6.106;2022-12-18T05:38:47;-8.70;99.90
12726;DHT22;6427;49.754;6.106;2022-12-18T05:41:15;-8.60;99.90
12726;DHT22;6427;49.754;6.106;2022-12-18T05:43:43;-8.60;99.90
12726;DHT22;6427;49.754;6.106;2022-12-18T05:46:15;-8.60;99.90
12726;DHT22;6427;49.754;6.106;2022-12-18T05:48:42;-8.70;99.90
12726;DHT22;6427;49.754;6.106;2022-12-18T05:51:10;-8.70;99.90
12726;DHT22;6427;49.754;6.106;2022-12-18T05:53:37;-8.70;99.90
12726;DHT22;6427;49.754;6.106;2022-12-18T05:56:05;-8.70;99.90
12726;DHT22;6427;49.754;6.106;2022-12-18T05:58:32;-8.60;99.90
12726;DHT22;6427;49.754;6.106;2022-12-18T06:01:10;-8.60;99.90
12726;DHT22;6427;49.754;6.106;2022-12-18T06:03:33;-8.70;99.90
12726;DHT22;6427;49.754;6.106;2022-12-18T06:06:01;-8.70;99.90
12726;DHT22;6427;49.754;6.106;2022-12-18T06:08:29;-8.80;99.90
12726;DHT22;6427;49.754;6.106;2022-12-18T06:10:57;-8.90;99.90
12726;DHT22;6427;49.754;6.106;2022-12-18T06:13:24;-8.90;99.90
12726;DHT22;6427;49.754;6.106;2022-12-18T06:15:53;-8.90;99.90
12726;DHT22;6427;49.754;6.106;2022-12-18T06:18:20;-8.90;99.90
12726;DHT22;6427;49.754;6.106;2022-12-18T06:20:54;-9.00;99.90
12726;DHT22;6427;49.754;6.106;2022-12-18T06:23:21;-8.80;99.90
12726;DHT22;6427;49.754;6.106;2022-12-18T06:25:49;-8.80;99.90
12726;DHT22;6427;49.754;6.106;2022-12-18T06:28:16;-8.90;99.90
12726;DHT22;6427;49.754;6.106;2022-12-18T06:30:45;-8.80;99.90
12726;DHT22;6427;49.754;6.106;2022-12-18T06:33:12;-8.90;99.90
12726;DHT22;6427;49.754;6.106;2022-12-18T06:35:40;-8.80;99.90
12726;DHT22;6427;49.754;6.106;2022-12-18T06:38:07;-8.80;99.90
12726;DHT22;6427;49.754;6.106;2022-12-18T06:40:36;-8.90;99.90
12726;DHT22;6427;49.754;6.106;2022-12-18T06:43:03;-8.90;99.90
12726;DHT22;6427;49.754;6.106;2022-12-18T06:45:32;-8.90;99.90
12726;DHT22;6427;49.754;6.106;2022-12-18T06:47:59;-8.90;99.90
12726;DHT22;6427;49.754;6.106;2022-12-18T06:50:27;-9.00;99.90
12726;DHT22;6427;49.754;6.106;2022-12-18T06:52:55;-9.00;99.90
12726;DHT22;6427;49.754;6.106;2022-12-18T06:55:23;-9.00;99.90
12726;DHT22;6427;49.754;6.106;2022-12-18T06:57:50;-9.00;99.90
12726;DHT22;6427;49.754;6.106;2022-12-18T07:00:18;-9.00;99.90
12726;DHT22;6427;49.754;6.106;2022-12-18T07:02:46;-9.00;99.90
12726;DHT22;6427;49.754;6.106;2022-12-18T07:05:13;-9.00;99.90
12726;DHT22;6427;49.754;6.106;2022-12-18T07:07:42;-9.00;99.90
12726;DHT22;6427;49.754;6.106;2022-12-18T07:10:09;-9.00;99.90
12726;DHT22;6427;49.754;6.106;2022-12-18T07:12:37;-9.00;99.90
12726;DHT22;6427;49.754;6.106;2022-12-18T07:15:05;-9.00;99.90
12726;DHT22;6427;49.754;6.106;2022-12-18T07:17:32;-9.00;99.90
12726;DHT22;6427;49.754;6.106;2022-12-18T07:20:00;-9.10;99.90
12726;DHT22;6427;49.754;6.106;2022-12-18T07:22:27;-9.10;99.90
12726;DHT22;6427;49.754;6.106;2022-12-18T07:24:55;-9.10;99.90
12726;DHT22;6427;49.754;6.106;2022-12-18T07:27:23;-9.10;99.90
12726;DHT22;6427;49.754;6.106;2022-12-18T07:29:51;-9.00;99.90
12726;DHT22;6427;49.754;6.106;2022-12-18T07:32:18;-8.70;99.90
12726;DHT22;6427;49.754;6.106;2022-12-18T07:34:46;-8.70;99.90
12726;DHT22;6427;49.754;6.106;2022-12-18T07:37:13;-8.70;99.90
12726;DHT22;6427;49.754;6.106;2022-12-18T07:39:41;-8.70;99.90
12726;DHT22;6427;49.754;6.106;2022-12-18T07:42:08;-8.70;99.90
12726;DHT22;6427;49.754;6.106;2022-12-18T07:44:54;-8.70;99.90
12726;DHT22;6427;49.754;6.106;2022-12-18T07:47:22;-8.70;99.90
12726;DHT22;6427;49.754;6.106;2022-12-18T07:49:49;-8.70;99.90
12726;DHT22;6427;49.754;6.106;2022-12-18T07:52:17;-8.70;99.90
12726;DHT22;6427;49.754;6.106;2022-12-18T07:54:44;-8.70;99.90
12726;DHT22;6427;49.754;6.106;2022-12-18T07:57:13;-8.60;99.90
12726;DHT22;6427;49.754;6.106;2022-12-18T07:59:43;-8.70;99.90
12726;DHT22;6427;49.754;6.106;2022-12-18T08:02:10;-8.60;99.90
12726;DHT22;6427;49.754;6.106;2022-12-18T08:04:38;-8.60;99.90
12726;DHT22;6427;49.754;6.106;2022-12-18T08:07:05;-8.60;99.90
12726;DHT22;6427;49.754;6.106;2022-12-18T08:09:33;-8.60;99.90
12726;DHT22;6427;49.754;6.106;2022-12-18T08:12:01;-8.50;99.90
12726;DHT22;6427;49.754;6.106;2022-12-18T08:14:29;-8.60;99.90
12726;DHT22;6427;49.754;6.106;2022-12-18T08:16:56;-8.50;99.90
12726;DHT22;6427;49.754;6.106;2022-12-18T08:19:24;-8.50;99.90
12726;DHT22;6427;49.754;6.106;2022-12-18T08:21:52;-8.50;99.90
12726;DHT22;6427;49.754;6.106;2022-12-18T08:24:20;-8.40;99.90
12726;DHT22;6427;49.754;6.106;2022-12-18T08:26:47;-8.50;99.90
12726;DHT22;6427;49.754;6.106;2022-12-18T08:29:15;-8.40;99.90
12726;DHT22;6427;49.754;6.106;2022-12-18T08:31:43;-8.50;99.90
12726;DHT22;6427;49.754;6.106;2022-12-18T08:34:11;-8.40;99.90
12726;DHT22;6427;49.754;6.106;2022-12-18T08:36:38;-8.40;99.90
12726;DHT22;6427;49.754;6.106;2022-12-18T08:39:06;-8.40;99.90
12726;DHT22;6427;49.754;6.106;2022-12-18T08:41:33;-8.40;99.90
12726;DHT22;6427;49.754;6.106;2022-12-18T08:44:01;-8.30;99.90
12726;DHT22;6427;49.754;6.106;2022-12-18T08:46:47;-8.20;99.90
12726;DHT22;6427;49.754;6.106;2022-12-18T08:49:15;-8.20;99.90
12726;DHT22;6427;49.754;6.106;2022-12-18T08:51:42;-8.10;99.90
12726;DHT22;6427;49.754;6.106;2022-12-18T08:54:13;-7.80;99.90
12726;DHT22;6427;49.754;6.106;2022-12-18T08:56:41;-7.40;99.90
12726;DHT22;6427;49.754;6.106;2022-12-18T08:59:08;-7.10;99.90
12726;DHT22;6427;49.754;6.106;2022-12-18T09:01:36;-7.10;99.90
12726;DHT22;6427;49.754;6.106;2022-12-18T09:04:03;-6.90;99.90
12726;DHT22;6427;49.754;6.106;2022-12-18T09:06:31;-6.90;99.90
12726;DHT22;6427;49.754;6.106;2022-12-18T09:08:58;-7.00;99.90
12726;DHT22;6427;49.754;6.106;2022-12-18T09:11:27;-7.00;99.90
12726;DHT22;6427;49.754;6.106;2022-12-18T09:13:54;-6.40;99.90
12726;DHT22;6427;49.754;6.106;2022-12-18T09:16:22;-6.40;99.90
12726;DHT22;6427;49.754;6.106;2022-12-18T09:18:49;-6.40;99.90
12726;DHT22;6427;49.754;6.106;2022-12-18T09:21:18;-6.40;99.90
12726;DHT22;6427;49.754;6.106;2022-12-18T09:23:48;-6.40;99.90
12726;DHT22;6427;49.754;6.106;2022-12-18T09:26:12;-6.50;99.90
12726;DHT22;6427;49.754;6.106;2022-12-18T09:28:40;-6.40;99.90
12726;DHT22;6427;49.754;6.106;2022-12-18T09:31:08;-6.40;99.90
12726;DHT22;6427;49.754;6.106;2022-12-18T09:33:35;-6.30;99.90
12726;DHT22;6427;49.754;6.106;2022-12-18T09:36:03;-6.30;99.90
12726;DHT22;6427;49.754;6.106;2022-12-18T09:38:30;-6.00;99.90
12726;DHT22;6427;49.754;6.106;2022-12-18T09:41:45;-5.90;99.90
12726;DHT22;6427;49.754;6.106;2022-12-18T09:43:30;-5.90;99.90
12726;DHT22;6427;49.754;6.106;2022-12-18T09:46:01;-5.50;99.90
12726;DHT22;6427;49.754;6.106;2022-12-18T09:48:37;-5.60;99.90
12726;DHT22;6427;49.754;6.106;2022-12-18T09:51:15;-5.50;99.90
12726;DHT22;6427;49.754;6.106;2022-12-18T09:53:34;-5.50;99.90
12726;DHT22;6427;49.754;6.106;2022-12-18T09:56:01;-5.50;99.90
12726;DHT22;6427;49.754;6.106;2022-12-18T09:58:36;-5.50;99.90
12726;DHT22;6427;49.754;6.106;2022-12-18T10:01:07;-5.50;99.90
12726;DHT22;6427;49.754;6.106;2022-12-18T10:03:31;-5.60;99.90
12726;DHT22;6427;49.754;6.106;2022-12-18T10:06:10;-5.60;99.90
12726;DHT22;6427;49.754;6.106;2022-12-18T10:11:30;-5.50;99.90
12726;DHT22;6427;49.754;6.106;2022-12-18T10:14:01;-5.40;99.90
12726;DHT22;6427;49.754;6.106;2022-12-18T10:19:23;-5.20;99.90
12726;DHT22;6427;49.754;6.106;2022-12-18T10:22:15;-5.10;99.90
12726;DHT22;6427;49.754;6.106;2022-12-18T10:24:41;-4.70;99.90
12726;DHT22;6427;49.754;6.106;2022-12-18T10:27:17;-4.50;99.90
12726;DHT22;6427;49.754;6.106;2022-12-18T10:29:43;-4.40;99.90
12726;DHT22;6427;49.754;6.106;2022-12-18T10:32:20;-4.30;99.90
12726;DHT22;6427;49.754;6.106;2022-12-18T10:34:48;-4.10;99.90
12726;DHT22;6427;49.754;6.106;2022-12-18T10:37:19;-4.10;99.90
12726;DHT22;6427;49.754;6.106;2022-12-18T10:39:46;-4.00;99.90
12726;DHT22;6427;49.754;6.106;2022-12-18T10:42:18;-3.90;99.90
12726;DHT22;6427;49.754;6.106;2022-12-18T10:44:44;-3.80;99.90
12726;DHT22;6427;49.754;6.106;2022-12-18T10:47:14;-3.70;99.90
12726;DHT22;6427;49.754;6.106;2022-12-18T10:49:42;-3.50;99.90
12726;DHT22;6427;49.754;6.106;2022-12-18T10:52:14;-3.50;99.90
12726;DHT22;6427;49.754;6.106;2022-12-18T10:54:52;-3.30;99.90
12726;DHT22;6427;49.754;6.106;2022-12-18T10:57:37;-3.40;99.90
12726;DHT22;6427;49.754;6.106;2022-12-18T11:00:24;-3.30;99.90
12726;DHT22;6427;49.754;6.106;2022-12-18T11:02:51;-3.20;99.90
12726;DHT22;6427;49.754;6.106;2022-12-18T11:05:31;-3.20;99.90
12726;DHT22;6427;49.754;6.106;2022-12-18T11:07:59;-3.10;99.90
12726;DHT22;6427;49.754;6.106;2022-12-18T11:10:30;-3.10;99.90
12726;DHT22;6427;49.754;6.106;2022-12-18T11:12:56;-3.00;99.90
12726;DHT22;6427;49.754;6.106;2022-12-18T11:15:27;-2.70;99.90
12726;DHT22;6427;49.754;6.106;2022-12-18T11:17:54;-2.60;99.90
12726;DHT22;6427;49.754;6.106;2022-12-18T11:20:24;-2.50;99.90
12726;DHT22;6427;49.754;6.106;2022-12-18T11:22:58;-2.50;99.90
12726;DHT22;6427;49.754;6.106;2022-12-18T11:25:25;-2.40;99.90
12726;DHT22;6427;49.754;6.106;2022-12-18T11:28:00;-2.40;99.90
12726;DHT22;6427;49.754;6.106;2022-12-18T11:30:30;-2.30;99.90
12726;DHT22;6427;49.754;6.106;2022-12-18T11:33:15;-2.20;99.90
12726;DHT22;6427;49.754;6.106;2022-12-18T11:38:20;-2.10;99.90
12726;DHT22;6427;49.754;6.106;2022-12-18T11:40:43;-2.00;99.90
12726;DHT22;6427;49.754;6.106;2022-12-18T11:43:16;-1.90;99.90
12726;DHT22;6427;49.754;6.106;2022-12-18T11:48:33;-1.80;99.90
12726;DHT22;6427;49.754;6.106;2022-12-18T11:51:00;-1.70;99.90
12726;DHT22;6427;49.754;6.106;2022-12-18T11:53:28;-1.60;99.90
12726;DHT22;6427;49.754;6.106;2022-12-18T11:56:03;-1.60;99.90
12726;DHT22;6427;49.754;6.106;2022-12-18T12:01:46;-1.50;99.90
12726;DHT22;6427;49.754;6.106;2022-12-18T12:09:33;-1.40;99.90
12726;DHT22;6427;49.754;6.106;2022-12-18T12:15:06;-1.40;99.90
12726;DHT22;6427;49.754;6.106;2022-12-18T12:17:43;-1.30;99.90
12726;DHT22;6427;49.754;6.106;2022-12-18T12:23:15;-1.20;99.90
12726;DHT22;6427;49.754;6.106;2022-12-18T12:25:49;-1.10;99.90
12726;DHT22;6427;49.754;6.106;2022-12-18T12:28:32;-1.00;99.90
12726;DHT22;6427;49.754;6.106;2022-12-18T12:36:27;-0.90;99.90
12726;DHT22;6427;49.754;6.106;2022-12-18T12:38:53;-0.90;99.90
12726;DHT22;6427;49.754;6.106;2022-12-18T12:41:26;-0.80;99.90
12726;DHT22;6427;49.754;6.106;2022-12-18T12:44:19;-0.60;99.90
12726;DHT22;6427;49.754;6.106;2022-12-18T12:46:42;-0.60;99.90
12726;DHT22;6427;49.754;6.106;2022-12-18T12:49:29;-0.60;99.90
12726;DHT22;6427;49.754;6.106;2022-12-18T12:51:40;-0.60;99.90
12726;DHT22;6427;49.754;6.106;2022-12-18T12:54:21;-0.40;99.90
12726;DHT22;6427;49.754;6.106;2022-12-18T12:57:01;-0.40;99.90
12726;DHT22;6427;49.754;6.106;2022-12-18T12:59:55;-0.50;99.90
12726;DHT22;6427;49.754;6.106;2022-12-18T13:02:32;-0.50;99.90
12726;DHT22;6427;49.754;6.106;2022-12-18T13:05:23;-0.60;99.90
12726;DHT22;6427;49.754;6.106;2022-12-18T13:07:50;-0.60;99.90
12726;DHT22;6427;49.754;6.106;2022-12-18T13:12:57;-0.70;99.90
12726;DHT22;6427;49.754;6.106;2022-12-18T13:20:47;-0.60;99.90
12726;DHT22;6427;49.754;6.106;2022-12-18T13:25:51;-0.60;99.90
12726;DHT22;6427;49.754;6.106;2022-12-18T13:28:22;-0.70;99.90
12726;DHT22;6427;49.754;6.106;2022-12-18T13:30:55;-0.80;99.90
12726;DHT22;6427;49.754;6.106;2022-12-18T13:38:34;-0.90;99.90
12726;DHT22;6427;49.754;6.106;2022-12-18T13:41:03;-0.90;99.90
12726;DHT22;6427;49.754;6.106;2022-12-18T13:43:39;-0.90;99.90
12726;DHT22;6427;49.754;6.106;2022-12-18T13:46:16;-1.00;99.90
12726;DHT22;6427;49.754;6.106;2022-12-18T13:48:34;-1.00;99.90
12726;DHT22;6427;49.754;6.106;2022-12-18T13:51:05;-0.80;99.90
12726;DHT22;6427;49.754;6.106;2022-12-18T13:54:19;-0.80;99.90
12726;DHT22;6427;49.754;6.106;2022-12-18T13:56:05;-0.80;99.90
12726;DHT22;6427;49.754;6.106;2022-12-18T13:58:32;-0.90;99.90
12726;DHT22;6427;49.754;6.106;2022-12-18T14:01:00;-1.00;99.90
12726;DHT22;6427;49.754;6.106;2022-12-18T14:03:28;-1.00;99.90
12726;DHT22;6427;49.754;6.106;2022-12-18T14:06:00;-1.10;99.90
12726;DHT22;6427;49.754;6.106;2022-12-18T14:08:27;-1.10;99.90
12726;DHT22;6427;49.754;6.106;2022-12-18T14:10:55;-1.10;99.90
12726;DHT22;6427;49.754;6.106;2022-12-18T14:13:32;-1.10;99.90
12726;DHT22;6427;49.754;6.106;2022-12-18T14:16:00;-1.10;99.90
12726;DHT22;6427;49.754;6.106;2022-12-18T14:21:06;-0.90;99.90
12726;DHT22;6427;49.754;6.106;2022-12-18T14:23:36;-0.90;99.90
12726;DHT22;6427;49.754;6.106;2022-12-18T14:26:19;-0.90;99.90
12726;DHT22;6427;49.754;6.106;2022-12-18T14:28:31;-1.00;99.90
12726;DHT22;6427;49.754;6.106;2022-12-18T14:30:58;-1.00;99.90
12726;DHT22;6427;49.754;6.106;2022-12-18T14:33:26;-0.80;99.90
12726;DHT22;6427;49.754;6.106;2022-12-18T14:36:00;-0.60;99.90
12726;DHT22;6427;49.754;6.106;2022-12-18T14:38:34;-0.40;99.90
12726;DHT22;6427;49.754;6.106;2022-12-18T14:41:15;-0.50;99.90
12726;DHT22;6427;49.754;6.106;2022-12-18T14:43:43;-0.80;99.90
12726;DHT22;6427;49.754;6.106;2022-12-18T14:46:29;-0.80;99.90
12726;DHT22;6427;49.754;6.106;2022-12-18T14:48:56;-1.00;99.90
12726;DHT22;6427;49.754;6.106;2022-12-18T14:51:28;-0.80;99.90
12726;DHT22;6427;49.754;6.106;2022-12-18T14:53:58;-0.90;99.90
12726;DHT22;6427;49.754;6.106;2022-12-18T14:56:32;-1.00;99.90
12726;DHT22;6427;49.754;6.106;2022-12-18T14:59:02;-1.20;99.90
12726;DHT22;6427;49.754;6.106;2022-12-18T15:01:36;-1.30;99.90
12726;DHT22;6427;49.754;6.106;2022-12-18T15:04:03;-1.40;99.90
12726;DHT22;6427;49.754;6.106;2022-12-18T15:06:31;-1.40;99.90
12726;DHT22;6427;49.754;6.106;2022-12-18T15:09:02;-1.50;99.90
12726;DHT22;6427;49.754;6.106;2022-12-18T15:11:33;-1.50;99.90
12726;DHT22;6427;49.754;6.106;2022-12-18T15:14:00;-1.50;99.90
12726;DHT22;6427;49.754;6.106;2022-12-18T15:16:27;-1.60;99.90
12726;DHT22;6427;49.754;6.106;2022-12-18T15:18:56;-1.10;99.90
12726;DHT22;6427;49.754;6.106;2022-12-18T15:21:23;-1.10;99.90
12726;DHT22;6427;49.754;6.106;2022-12-18T15:23:51;-1.10;99.90
12726;DHT22;6427;49.754;6.106;2022-12-18T15:26:20;-1.20;99.90
12726;DHT22;6427;49.754;6.106;2022-12-18T15:28:52;-1.30;99.90
12726;DHT22;6427;49.754;6.106;2022-12-18T15:31:23;-1.40;99.90
12726;DHT22;6427;49.754;6.106;2022-12-18T15:36:21;-1.50;99.90
12726;DHT22;6427;49.754;6.106;2022-12-18T15:38:48;-1.50;99.90
12726;DHT22;6427;49.754;6.106;2022-12-18T15:41:17;-1.40;99.90
12726;DHT22;6427;49.754;6.106;2022-12-18T15:43:44;-1.40;99.90
12726;DHT22;6427;49.754;6.106;2022-12-18T15:46:16;-1.40;99.90
12726;DHT22;6427;49.754;6.106;2022-12-18T15:48:43;-1.50;99.90
12726;DHT22;6427;49.754;6.106;2022-12-18T15:51:17;-1.60;99.90
12726;DHT22;6427;49.754;6.106;2022-12-18T15:53:42;-1.60;99.90
12726;DHT22;6427;49.754;6.106;2022-12-18T15:56:14;-1.70;99.90
12726;DHT22;6427;49.754;6.106;2022-12-18T15:58:59;-1.70;99.90
12726;DHT22;6427;49.754;6.106;2022-12-18T16:01:27;-1.70;99.90
12726;DHT22;6427;49.754;6.106;2022-12-18T16:03:54;-1.70;99.90
12726;DHT22;6427;49.754;6.106;2022-12-18T16:06:22;-1.70;99.90
12726;DHT22;6427;49.754;6.106;2022-12-18T16:08:50;-1.80;99.90
12726;DHT22;6427;49.754;6.106;2022-12-18T16:11:27;-1.70;99.90
12726;DHT22;6427;49.754;6.106;2022-12-18T16:14:20;-1.80;99.90
12726;DHT22;6427;49.754;6.106;2022-12-18T16:16:46;-1.80;99.90
12726;DHT22;6427;49.754;6.106;2022-12-18T16:19:13;-1.80;99.90
12726;DHT22;6427;49.754;6.106;2022-12-18T16:21:41;-1.60;99.90
12726;DHT22;6427;49.754;6.106;2022-12-18T16:24:15;-1.50;99.90
12726;DHT22;6427;49.754;6.106;2022-12-18T16:26:39;-1.30;99.90
12726;DHT22;6427;49.754;6.106;2022-12-18T16:29:07;-1.30;99.90
12726;DHT22;6427;49.754;6.106;2022-12-18T16:31:34;-1.40;99.90
12726;DHT22;6427;49.754;6.106;2022-12-18T16:34:17;-1.50;99.90
12726;DHT22;6427;49.754;6.106;2022-12-18T16:36:41;-1.50;99.90
12726;DHT22;6427;49.754;6.106;2022-12-18T16:39:09;-1.60;99.90
12726;DHT22;6427;49.754;6.106;2022-12-18T16:41:36;-1.60;99.90
12726;DHT22;6427;49.754;6.106;2022-12-18T16:44:04;-1.70;99.90
12726;DHT22;6427;49.754;6.106;2022-12-18T16:46:32;-1.70;99.90
12726;DHT22;6427;49.754;6.106;2022-12-18T16:48:59;-1.70;99.90
12726;DHT22;6427;49.754;6.106;2022-12-18T16:51:27;-1.70;99.90
12726;DHT22;6427;49.754;6.106;2022-12-18T16:53:55;-1.80;99.90
12726;DHT22;6427;49.754;6.106;2022-12-18T16:56:22;-1.70;99.90
12726;DHT22;6427;49.754;6.106;2022-12-18T16:58:54;-1.70;99.90
12726;DHT22;6427;49.754;6.106;2022-12-18T17:01:20;-1.70;99.90
12726;DHT22;6427;49.754;6.106;2022-12-18T17:03:58;-1.70;99.90
12726;DHT22;6427;49.754;6.106;2022-12-18T17:06:23;-1.70;99.90
12726;DHT22;6427;49.754;6.106;2022-12-18T17:08:58;-1.60;99.90
12726;DHT22;6427;49.754;6.106;2022-12-18T17:11:29;-1.60;99.90